sensor_id;sensor_type;location;lat;lon;timestamp;pressure;altitude;pressure_sealevel;temperature;humidity
7940;BME280;4015;48.888;9.226;2022-12-29T00:01:28;157713.34;;;9.83;71.42
7940;BME280;4015;48.888;9.226;2022-12-29T00:03:53;157718.41;;;9.85;71.34
7940;BME280;4015;48.888;9.226;2022-12-29T00:06:18;157728.66;;;9.89;71.50
7940;BME280;4015;48.888;9.226;2022-12-29T00:08:44;157737.56;;;9.92;71.96
7940;BME280;4015;48.888;9.226;2022-12-29T00:11:20;157732.47;;;9.90;71.24
7940;BME280;4015;48.888;9.226;2022-12-29T00:13:46;157746.53;;;9.96;71.95
7940;BME280;4015;48.888;9.226;2022-12-29T00:16:31;157728.66;;;9.89;72.33
7940;BME280;4015;48.888;9.226;2022-12-29T00:18:56;157718.41;;;9.85;71.98
7940;BME280;4015;48.888;9.226;2022-12-29T00:21:23;157698.00;;;9.77;72.64
7940;BME280;4015;48.888;9.226;2022-12-29T00:24:18;157713.34;;;9.83;72.71
7940;BME280;4015;48.888;9.226;2022-12-29T00:26:50;157708.25;;;9.81;72.88
7940;BME280;4015;48.888;9.226;2022-12-29T00:29:36;157680.13;;;9.69;73.42
7940;BME280;4015;48.888;9.226;2022-12-29T00:32:20;157661.00;;;9.62;73.38
7940;BME280;4015;48.888;9.226;2022-12-29T00:35:06;157671.19;;;9.66;73.40
7940;BME280;4015;48.888;9.226;2022-12-29T00:37:46;157668.63;;;9.65;73.92
7940;BME280;4015;48.888;9.226;2022-12-29T00:40:31;157703.09;;;9.79;72.62
7940;BME280;4015;48.888;9.226;2022-12-29T00:43:32;157629.09;;;9.49;74.23
7940;BME280;4015;48.888;9.226;2022-12-29T00:46:16;157576.72;;;9.28;74.51
7940;BME280;4015;48.888;9.226;2022-12-29T00:48:41;157575.44;;;9.28;74.94
7940;BME280;4015;48.888;9.226;2022-12-29T00:51:25;157570.38;;;9.26;74.79
7940;BME280;4015;48.888;9.226;2022-12-29T00:53:50;157565.22;;;9.24;74.95
7940;BME280;4015;48.888;9.226;2022-12-29T00:56:16;157569.09;;;9.25;75.01
7940;BME280;4015;48.888;9.226;2022-12-29T00:58:41;157571.63;;;9.26;75.44
7940;BME280;4015;48.888;9.226;2022-12-29T01:01:08;157567.81;;;9.25;74.83
7940;BME280;4015;48.888;9.226;2022-12-29T01:03:37;157534.66;;;9.11;74.97
7940;BME280;4015;48.888;9.226;2022-12-29T01:06:06;157526.97;;;9.08;75.88
7940;BME280;4015;48.888;9.226;2022-12-29T01:08:32;157533.31;;;9.11;76.07
7940;BME280;4015;48.888;9.226;2022-12-29T01:11:04;157584.41;;;9.31;75.58
7940;BME280;4015;48.888;9.226;2022-12-29T01:13:30;157590.78;;;9.34;75.25
7940;BME280;4015;48.888;9.226;2022-12-29T01:15:56;157616.31;;;9.44;74.51
7940;BME280;4015;48.888;9.226;2022-12-29T01:18:22;157645.69;;;9.56;73.81
7940;BME280;4015;48.888;9.226;2022-12-29T01:20:48;157677.59;;;9.68;73.36
7940;BME280;4015;48.888;9.226;2022-12-29T01:23:13;157722.25;;;9.86;72.81
7940;BME280;4015;48.888;9.226;2022-12-29T01:25:39;157741.44;;;9.94;72.36
7940;BME280;4015;48.888;9.226;2022-12-29T01:28:04;157759.28;;;10.01;71.74
7940;BME280;4015;48.888;9.226;2022-12-29T01:30:30;157775.91;;;10.08;71.49
7940;BME280;4015;48.888;9.226;2022-12-29T01:32:55;157777.16;;;10.08;71.58
7940;BME280;4015;48.888;9.226;2022-12-29T01:35:21;157788.69;;;10.13;71.75
7940;BME280;4015;48.888;9.226;2022-12-29T01:37:46;157746.53;;;9.96;72.92
7940;BME280;4015;48.888;9.226;2022-12-29T01:40:12;157754.16;;;9.99;72.44
7940;BME280;4015;48.888;9.226;2022-12-29T01:42:37;157793.78;;;10.15;72.02
7940;BME280;4015;48.888;9.226;2022-12-29T01:50:08;157788.69;;;10.13;71.83
7940;BME280;4015;48.888;9.226;2022-12-29T01:52:36;157783.53;;;10.11;72.01
7940;BME280;4015;48.888;9.226;2022-12-29T01:55:04;157777.16;;;10.08;72.33
7940;BME280;4015;48.888;9.226;2022-12-29T01:57:34;157763.13;;;10.03;72.88
7940;BME280;4015;48.888;9.226;2022-12-29T02:00:10;157738.84;;;9.93;73.30
7940;BME280;4015;48.888;9.226;2022-12-29T02:02:36;157712.06;;;9.82;73.17
7940;BME280;4015;48.888;9.226;2022-12-29T02:05:11;157708.25;;;9.81;73.95
7940;BME280;4015;48.888;9.226;2022-12-29T02:07:39;157751.63;;;9.98;73.46
7940;BME280;4015;48.888;9.226;2022-12-29T02:10:05;157795.03;;;10.15;72.38
7940;BME280;4015;48.888;9.226;2022-12-29T02:12:30;157796.31;;;10.16;72.38
7940;BME280;4015;48.888;9.226;2022-12-29T02:14:59;157815.50;;;10.23;72.52
7940;BME280;4015;48.888;9.226;2022-12-29T02:17:33;157839.78;;;10.33;71.97
7940;BME280;4015;48.888;9.226;2022-12-29T02:34:15;157883.25;;;10.50;71.08
7940;BME280;4015;48.888;9.226;2022-12-29T02:37:00;157855.13;;;10.39;71.45
7940;BME280;4015;48.888;9.226;2022-12-29T02:42:41;157828.28;;;10.29;72.19
7940;BME280;4015;48.888;9.226;2022-12-29T02:45:22;157783.53;;;10.11;72.75
7940;BME280;4015;48.888;9.226;2022-12-29T02:48:04;157763.13;;;10.03;72.99
7940;BME280;4015;48.888;9.226;2022-12-29T02:50:37;157747.78;;;9.96;73.30
7940;BME280;4015;48.888;9.226;2022-12-29T02:53:11;157784.81;;;10.11;72.32
7940;BME280;4015;48.888;9.226;2022-12-29T02:55:38;157778.44;;;10.09;72.23
7940;BME280;4015;48.888;9.226;2022-12-29T02:58:17;157818.09;;;10.24;72.15
7940;BME280;4015;48.888;9.226;2022-12-29T03:04:13;157912.56;;;10.62;71.10
7940;BME280;4015;48.888;9.226;2022-12-29T03:07:12;157933.03;;;10.70;70.58
7940;BME280;4015;48.888;9.226;2022-12-29T03:09:45;157950.94;;;10.77;69.96
7940;BME280;4015;48.888;9.226;2022-12-29T03:12:22;157963.72;;;10.83;69.89
7940;BME280;4015;48.888;9.226;2022-12-29T03:15:08;157976.50;;;10.88;69.45
7940;BME280;4015;48.888;9.226;2022-12-29T03:18:02;157991.81;;;10.94;69.24
7940;BME280;4015;48.888;9.226;2022-12-29T03:21:04;158018.63;;;11.04;69.01
7940;BME280;4015;48.888;9.226;2022-12-29T03:23:31;158026.31;;;11.07;68.67
7940;BME280;4015;48.888;9.226;2022-12-29T03:26:01;158019.91;;;11.05;69.10
7940;BME280;4015;48.888;9.226;2022-12-29T03:28:37;158013.53;;;11.02;69.20
7940;BME280;4015;48.888;9.226;2022-12-29T03:31:06;158022.44;;;11.06;69.20
7940;BME280;4015;48.888;9.226;2022-12-29T03:33:33;158025.03;;;11.07;69.22
7940;BME280;4015;48.888;9.226;2022-12-29T03:36:03;158032.69;;;11.10;69.30
7940;BME280;4015;48.888;9.226;2022-12-29T03:38:49;158031.41;;;11.10;69.03
7940;BME280;4015;48.888;9.226;2022-12-29T03:41:20;158021.16;;;11.05;69.75
7940;BME280;4015;48.888;9.226;2022-12-29T03:43:47;158013.53;;;11.02;70.44
7940;BME280;4015;48.888;9.226;2022-12-29T03:46:13;158005.84;;;10.99;70.08
7940;BME280;4015;48.888;9.226;2022-12-29T03:48:38;157963.72;;;10.83;71.11
7940;BME280;4015;48.888;9.226;2022-12-29T03:51:03;157903.66;;;10.59;71.90
7940;BME280;4015;48.888;9.226;2022-12-29T03:53:29;157920.25;;;10.65;71.37
7940;BME280;4015;48.888;9.226;2022-12-29T03:55:54;157897.28;;;10.56;71.58
7940;BME280;4015;48.888;9.226;2022-12-29T03:58:19;157899.84;;;10.57;71.65
7940;BME280;4015;48.888;9.226;2022-12-29T04:00:45;157899.84;;;10.57;71.39
7940;BME280;4015;48.888;9.226;2022-12-29T04:03:10;157867.91;;;10.44;72.08
7940;BME280;4015;48.888;9.226;2022-12-29T04:05:35;157915.16;;;10.63;71.25
7940;BME280;4015;48.888;9.226;2022-12-29T04:08:00;157850.03;;;10.37;72.00
7940;BME280;4015;48.888;9.226;2022-12-29T04:10:26;157788.69;;;10.13;73.20
7940;BME280;4015;48.888;9.226;2022-12-29T04:12:51;157844.88;;;10.35;72.16
7940;BME280;4015;48.888;9.226;2022-12-29T04:15:16;157835.97;;;10.32;71.92
7940;BME280;4015;48.888;9.226;2022-12-29T04:17:42;157800.13;;;10.17;72.43
7940;BME280;4015;48.888;9.226;2022-12-29T04:20:08;157781.00;;;10.10;73.35
7940;BME280;4015;48.888;9.226;2022-12-29T04:22:59;157787.41;;;10.12;73.18
7940;BME280;4015;48.888;9.226;2022-12-29T04:25:25;157819.38;;;10.25;73.90
7940;BME280;4015;48.888;9.226;2022-12-29T04:27:50;157824.47;;;10.27;73.13
7940;BME280;4015;48.888;9.226;2022-12-29T04:30:15;157860.22;;;10.41;73.36
7940;BME280;4015;48.888;9.226;2022-12-29T04:32:41;157888.34;;;10.52;72.33
7940;BME280;4015;48.888;9.226;2022-12-29T04:35:06;157888.34;;;10.52;72.00
7940;BME280;4015;48.888;9.226;2022-12-29T04:37:32;157871.72;;;10.46;72.64
7940;BME280;4015;48.888;9.226;2022-12-29T04:39:57;157947.09;;;10.76;72.10
7940;BME280;4015;48.888;9.226;2022-12-29T04:42:22;157971.34;;;10.86;71.29
7940;BME280;4015;48.888;9.226;2022-12-29T04:44:47;158002.03;;;10.98;71.01
7940;BME280;4015;48.888;9.226;2022-12-29T04:47:13;157938.13;;;10.72;72.49
7940;BME280;4015;48.888;9.226;2022-12-29T04:49:38;157945.84;;;10.75;72.07
7940;BME280;4015;48.888;9.226;2022-12-29T04:52:03;157975.16;;;10.87;72.06
7940;BME280;4015;48.888;9.226;2022-12-29T04:54:29;157950.94;;;10.77;72.28
7940;BME280;4015;48.888;9.226;2022-12-29T04:56:54;157950.94;;;10.77;72.59
7940;BME280;4015;48.888;9.226;2022-12-29T04:59:19;157950.94;;;10.77;72.88
7940;BME280;4015;48.888;9.226;2022-12-29T05:01:45;157976.50;;;10.88;72.63
7940;BME280;4015;48.888;9.226;2022-12-29T05:04:10;157967.53;;;10.84;73.02
7940;BME280;4015;48.888;9.226;2022-12-29T05:06:35;157952.19;;;10.78;73.21
7940;BME280;4015;48.888;9.226;2022-12-29T05:09:01;157964.97;;;10.83;72.85
7940;BME280;4015;48.888;9.226;2022-12-29T05:11:26;157977.75;;;10.88;72.96
7940;BME280;4015;48.888;9.226;2022-12-29T05:13:51;157971.34;;;10.86;73.33
7940;BME280;4015;48.888;9.226;2022-12-29T05:16:16;157984.13;;;10.91;73.17
7940;BME280;4015;48.888;9.226;2022-12-29T05:18:42;157973.91;;;10.87;73.25
7940;BME280;4015;48.888;9.226;2022-12-29T05:21:07;157993.09;;;10.94;72.92
7940;BME280;4015;48.888;9.226;2022-12-29T05:23:32;157998.19;;;10.96;73.02
7940;BME280;4015;48.888;9.226;2022-12-29T05:25:58;157987.97;;;10.92;73.33
7940;BME280;4015;48.888;9.226;2022-12-29T05:28:23;157982.84;;;10.90;73.70
7940;BME280;4015;48.888;9.226;2022-12-29T05:30:50;157982.84;;;10.90;73.56
7940;BME280;4015;48.888;9.226;2022-12-29T05:33:17;158004.56;;;10.99;73.43
7940;BME280;4015;48.888;9.226;2022-12-29T05:35:42;157999.47;;;10.97;73.46
7940;BME280;4015;48.888;9.226;2022-12-29T05:38:08;158000.75;;;10.97;73.45
7940;BME280;4015;48.888;9.226;2022-12-29T05:40:33;158026.31;;;11.07;73.08
7940;BME280;4015;48.888;9.226;2022-12-29T05:42:58;158008.44;;;11.00;73.62
7940;BME280;4015;48.888;9.226;2022-12-29T05:45:24;158027.59;;;11.08;72.99
7940;BME280;4015;48.888;9.226;2022-12-29T05:47:49;158033.97;;;11.11;73.32
7940;BME280;4015;48.888;9.226;2022-12-29T05:50:15;158058.25;;;11.20;72.98
7940;BME280;4015;48.888;9.226;2022-12-29T05:52:40;158063.34;;;11.22;73.04
7940;BME280;4015;48.888;9.226;2022-12-29T05:55:06;158068.44;;;11.24;72.98
7940;BME280;4015;48.888;9.226;2022-12-29T05:57:31;158097.84;;;11.36;72.61
7940;BME280;4015;48.888;9.226;2022-12-29T05:59:56;158108.09;;;11.40;72.53
7940;BME280;4015;48.888;9.226;2022-12-29T06:02:22;158111.91;;;11.42;72.23
7940;BME280;4015;48.888;9.226;2022-12-29T06:04:47;158119.59;;;11.45;72.31
7940;BME280;4015;48.888;9.226;2022-12-29T06:07:12;158127.25;;;11.48;72.00
7940;BME280;4015;48.888;9.226;2022-12-29T06:09:38;158101.66;;;11.38;72.26
7940;BME280;4015;48.888;9.226;2022-12-29T06:12:03;158103.00;;;11.38;72.08
7940;BME280;4015;48.888;9.226;2022-12-29T06:14:29;158094.03;;;11.34;72.35
7940;BME280;4015;48.888;9.226;2022-12-29T06:16:54;158074.88;;;11.27;72.51
7940;BME280;4015;48.888;9.226;2022-12-29T06:19:19;158050.56;;;11.17;72.68
7940;BME280;4015;48.888;9.226;2022-12-29T06:21:44;158033.97;;;11.11;73.14
7940;BME280;4015;48.888;9.226;2022-12-29T06:24:10;158053.13;;;11.18;72.69
7940;BME280;4015;48.888;9.226;2022-12-29T06:26:36;158054.41;;;11.19;72.41
7940;BME280;4015;48.888;9.226;2022-12-29T06:29:02;158060.81;;;11.21;72.73
7940;BME280;4015;48.888;9.226;2022-12-29T06:31:28;158058.25;;;11.20;72.59
7940;BME280;4015;48.888;9.226;2022-12-29T06:33:53;158076.16;;;11.27;72.15
7940;BME280;4015;48.888;9.226;2022-12-29T06:36:18;158060.81;;;11.21;72.39
7940;BME280;4015;48.888;9.226;2022-12-29T06:38:44;158079.97;;;11.29;72.54
7940;BME280;4015;48.888;9.226;2022-12-29T06:41:09;158090.22;;;11.33;71.81
7940;BME280;4015;48.888;9.226;2022-12-29T06:43:34;158062.09;;;11.22;72.24
7940;BME280;4015;48.888;9.226;2022-12-29T06:46:03;158049.28;;;11.17;72.57
7940;BME280;4015;48.888;9.226;2022-12-29T06:48:29;158031.41;;;11.10;72.44
7940;BME280;4015;48.888;9.226;2022-12-29T06:50:54;158076.16;;;11.27;72.25
7940;BME280;4015;48.888;9.226;2022-12-29T06:53:19;158124.72;;;11.47;71.52
7940;BME280;4015;48.888;9.226;2022-12-29T06:55:44;158155.38;;;11.59;71.19
7940;BME280;4015;48.888;9.226;2022-12-29T06:58:10;158097.84;;;11.36;71.42
7940;BME280;4015;48.888;9.226;2022-12-29T07:00:35;158081.25;;;11.29;71.85
7940;BME280;4015;48.888;9.226;2022-12-29T07:03:00;158074.88;;;11.27;71.95
7940;BME280;4015;48.888;9.226;2022-12-29T07:05:26;158062.09;;;11.22;71.92
7940;BME280;4015;48.888;9.226;2022-12-29T07:07:57;158071.03;;;11.25;71.80
7940;BME280;4015;48.888;9.226;2022-12-29T07:10:23;158041.66;;;11.14;72.70
7940;BME280;4015;48.888;9.226;2022-12-29T07:12:48;158017.34;;;11.04;72.73
7940;BME280;4015;48.888;9.226;2022-12-29T07:15:13;157971.34;;;10.86;72.96
7940;BME280;4015;48.888;9.226;2022-12-29T07:17:39;157958.56;;;10.80;73.00
7940;BME280;4015;48.888;9.226;2022-12-29T07:20:05;157958.56;;;10.80;72.64
7940;BME280;4015;48.888;9.226;2022-12-29T07:22:31;157934.31;;;10.71;72.81
7940;BME280;4015;48.888;9.226;2022-12-29T07:24:56;157956.03;;;10.79;72.62
7940;BME280;4015;48.888;9.226;2022-12-29T07:27:22;157962.44;;;10.82;72.01
7940;BME280;4015;48.888;9.226;2022-12-29T07:29:47;157975.16;;;10.87;72.00
7940;BME280;4015;48.888;9.226;2022-12-29T07:32:13;157977.75;;;10.88;71.34
7940;BME280;4015;48.888;9.226;2022-12-29T07:34:38;157970.06;;;10.85;71.59
7940;BME280;4015;48.888;9.226;2022-12-29T07:37:05;157967.53;;;10.84;71.63
7940;BME280;4015;48.888;9.226;2022-12-29T07:39:30;157977.75;;;10.88;71.43
7940;BME280;4015;48.888;9.226;2022-12-29T07:41:55;157971.34;;;10.86;71.64
7940;BME280;4015;48.888;9.226;2022-12-29T07:44:21;157982.84;;;10.90;71.30
7940;BME280;4015;48.888;9.226;2022-12-29T07:46:46;157975.16;;;10.87;71.36
7940;BME280;4015;48.888;9.226;2022-12-29T07:49:12;157971.34;;;10.86;71.22
7940;BME280;4015;48.888;9.226;2022-12-29T07:51:37;157958.56;;;10.80;71.31
7940;BME280;4015;48.888;9.226;2022-12-29T07:54:02;157956.03;;;10.79;71.64
7940;BME280;4015;48.888;9.226;2022-12-29T07:56:28;157968.81;;;10.85;71.18
7940;BME280;4015;48.888;9.226;2022-12-29T07:58:53;157979.03;;;10.89;71.21
7940;BME280;4015;48.888;9.226;2022-12-29T08:01:18;157954.75;;;10.79;71.39
7940;BME280;4015;48.888;9.226;2022-12-29T08:03:44;157966.25;;;10.84;71.46
7940;BME280;4015;48.888;9.226;2022-12-29T08:06:10;157972.63;;;10.86;71.40
7940;BME280;4015;48.888;9.226;2022-12-29T08:08:36;157962.44;;;10.82;71.75
7940;BME280;4015;48.888;9.226;2022-12-29T08:11:01;157986.69;;;10.92;71.50
7940;BME280;4015;48.888;9.226;2022-12-29T08:13:26;158021.16;;;11.05;70.42
7940;BME280;4015;48.888;9.226;2022-12-29T08:15:52;158017.34;;;11.04;71.34
7940;BME280;4015;48.888;9.226;2022-12-29T08:18:17;158040.38;;;11.13;71.17
7940;BME280;4015;48.888;9.226;2022-12-29T08:20:42;158067.19;;;11.24;70.97
7940;BME280;4015;48.888;9.226;2022-12-29T08:23:08;158058.25;;;11.20;70.74
7940;BME280;4015;48.888;9.226;2022-12-29T08:25:33;158074.88;;;11.27;70.36
7940;BME280;4015;48.888;9.226;2022-12-29T08:27:58;158091.47;;;11.33;70.11
7940;BME280;4015;48.888;9.226;2022-12-29T08:30:24;158090.22;;;11.33;70.33
7940;BME280;4015;48.888;9.226;2022-12-29T08:32:49;158064.63;;;11.23;70.82
7940;BME280;4015;48.888;9.226;2022-12-29T08:35:14;158095.31;;;11.35;70.55
7940;BME280;4015;48.888;9.226;2022-12-29T08:37:40;158042.94;;;11.14;71.29
7940;BME280;4015;48.888;9.226;2022-12-29T08:40:06;158045.47;;;11.15;71.29
7940;BME280;4015;48.888;9.226;2022-12-29T08:42:31;158064.63;;;11.23;71.26
7940;BME280;4015;48.888;9.226;2022-12-29T08:44:58;158045.47;;;11.15;71.77
7940;BME280;4015;48.888;9.226;2022-12-29T08:47:24;157996.94;;;10.96;72.28
7940;BME280;4015;48.888;9.226;2022-12-29T08:49:49;158012.25;;;11.02;72.32
7940;BME280;4015;48.888;9.226;2022-12-29T08:52:15;158016.06;;;11.03;72.34
7940;BME280;4015;48.888;9.226;2022-12-29T08:54:40;158014.81;;;11.03;72.67
7940;BME280;4015;48.888;9.226;2022-12-29T08:57:05;158036.50;;;11.12;72.68
7940;BME280;4015;48.888;9.226;2022-12-29T08:59:31;158035.22;;;11.11;71.93
7940;BME280;4015;48.888;9.226;2022-12-29T09:01:56;158042.94;;;11.14;72.01
7940;BME280;4015;48.888;9.226;2022-12-29T09:04:21;158032.69;;;11.10;72.70
7940;BME280;4015;48.888;9.226;2022-12-29T09:06:48;158055.72;;;11.19;72.37
7940;BME280;4015;48.888;9.226;2022-12-29T09:09:14;158082.50;;;11.30;72.47
7940;BME280;4015;48.888;9.226;2022-12-29T09:11:39;158128.53;;;11.48;71.15
7940;BME280;4015;48.888;9.226;2022-12-29T09:14:05;158143.88;;;11.54;71.08
7940;BME280;4015;48.888;9.226;2022-12-29T09:16:31;158152.84;;;11.58;71.13
7940;BME280;4015;48.888;9.226;2022-12-29T09:18:56;158189.88;;;11.73;70.79
7940;BME280;4015;48.888;9.226;2022-12-29T09:21:22;158188.63;;;11.72;70.50
7940;BME280;4015;48.888;9.226;2022-12-29T09:23:47;158235.97;;;11.91;69.32
7940;BME280;4015;48.888;9.226;2022-12-29T09:26:13;158224.44;;;11.86;69.67
7940;BME280;4015;48.888;9.226;2022-12-29T09:28:38;158211.66;;;11.81;70.82
7940;BME280;4015;48.888;9.226;2022-12-29T09:31:04;158220.63;;;11.85;71.38
7940;BME280;4015;48.888;9.226;2022-12-29T09:33:29;158215.53;;;11.83;70.76
7940;BME280;4015;48.888;9.226;2022-12-29T09:35:56;158229.59;;;11.88;70.52
7940;BME280;4015;48.888;9.226;2022-12-29T09:38:23;158202.69;;;11.78;71.11
7940;BME280;4015;48.888;9.226;2022-12-29T09:41:13;158211.66;;;11.81;71.78
7940;BME280;4015;48.888;9.226;2022-12-29T09:48:47;158297.34;;;12.15;70.04
7940;BME280;4015;48.888;9.226;2022-12-29T09:51:17;158315.22;;;12.23;69.25
7940;BME280;4015;48.888;9.226;2022-12-29T09:53:52;158325.47;;;12.27;69.14
7940;BME280;4015;48.888;9.226;2022-12-29T09:56:23;158308.84;;;12.20;70.32
7940;BME280;4015;48.888;9.226;2022-12-29T09:58:57;158324.22;;;12.26;69.94
7940;BME280;4015;48.888;9.226;2022-12-29T10:01:41;158290.91;;;12.13;69.79
7940;BME280;4015;48.888;9.226;2022-12-29T10:04:09;158348.47;;;12.36;69.05
7940;BME280;4015;48.888;9.226;2022-12-29T10:06:55;158334.41;;;12.30;68.97
7940;BME280;4015;48.888;9.226;2022-12-29T10:09:39;158360.00;;;12.40;68.95
7940;BME280;4015;48.888;9.226;2022-12-29T10:15:12;158354.91;;;12.38;69.55
7940;BME280;4015;48.888;9.226;2022-12-29T10:17:45;158372.78;;;12.46;69.15
7940;BME280;4015;48.888;9.226;2022-12-29T10:25:38;158493.00;;;12.93;68.32
7940;BME280;4015;48.888;9.226;2022-12-29T10:28:15;158486.63;;;12.91;69.72
7940;BME280;4015;48.888;9.226;2022-12-29T10:30:43;158548.03;;;13.15;68.71
7940;BME280;4015;48.888;9.226;2022-12-29T10:33:17;158504.53;;;12.98;68.92
7940;BME280;4015;48.888;9.226;2022-12-29T10:35:44;158532.69;;;13.09;69.64
7940;BME280;4015;48.888;9.226;2022-12-29T10:46:10;158536.50;;;13.11;69.10
7940;BME280;4015;48.888;9.226;2022-12-29T10:48:36;158510.91;;;13.01;69.68
7940;BME280;4015;48.888;9.226;2022-12-29T10:51:04;158510.91;;;13.01;70.32
7940;BME280;4015;48.888;9.226;2022-12-29T10:53:40;158480.19;;;12.88;70.84
7940;BME280;4015;48.888;9.226;2022-12-29T10:56:18;158519.88;;;13.04;70.81
7940;BME280;4015;48.888;9.226;2022-12-29T10:58:48;158507.06;;;12.99;72.56
7940;BME280;4015;48.888;9.226;2022-12-29T11:01:14;158519.88;;;13.04;71.96
7940;BME280;4015;48.888;9.226;2022-12-29T11:06:38;158496.88;;;12.95;72.12
7940;BME280;4015;48.888;9.226;2022-12-29T11:09:19;158528.84;;;13.08;73.25
7940;BME280;4015;48.888;9.226;2022-12-29T11:11:48;158522.44;;;13.05;72.53
7940;BME280;4015;48.888;9.226;2022-12-29T11:14:17;158568.53;;;13.23;72.70
7940;BME280;4015;48.888;9.226;2022-12-29T11:16:43;158605.63;;;13.38;72.94
7940;BME280;4015;48.888;9.226;2022-12-29T11:19:24;158638.94;;;13.52;70.78
7940;BME280;4015;48.888;9.226;2022-12-29T11:21:50;158614.63;;;13.42;70.90
7940;BME280;4015;48.888;9.226;2022-12-29T11:24:21;158624.88;;;13.46;70.06
7940;BME280;4015;48.888;9.226;2022-12-29T11:26:49;158640.22;;;13.52;69.88
7940;BME280;4015;48.888;9.226;2022-12-29T11:29:24;158654.31;;;13.58;68.70
7940;BME280;4015;48.888;9.226;2022-12-29T11:31:55;158669.63;;;13.64;68.21
7940;BME280;4015;48.888;9.226;2022-12-29T11:34:25;158644.06;;;13.54;69.63
7940;BME280;4015;48.888;9.226;2022-12-29T11:36:53;158673.50;;;13.65;68.59
7940;BME280;4015;48.888;9.226;2022-12-29T11:41:53;158638.94;;;13.52;69.83
7940;BME280;4015;48.888;9.226;2022-12-29T11:44:19;158615.88;;;13.42;70.60
7940;BME280;4015;48.888;9.226;2022-12-29T11:46:48;158606.97;;;13.39;69.52
7940;BME280;4015;48.888;9.226;2022-12-29T11:49:20;158589.00;;;13.32;70.33
7940;BME280;4015;48.888;9.226;2022-12-29T11:51:47;158580.06;;;13.28;70.63
7940;BME280;4015;48.888;9.226;2022-12-29T11:54:21;158578.78;;;13.28;68.62
7940;BME280;4015;48.888;9.226;2022-12-29T11:56:49;158541.63;;;13.13;70.63
7940;BME280;4015;48.888;9.226;2022-12-29T12:01:53;158551.88;;;13.17;69.14
7940;BME280;4015;48.888;9.226;2022-12-29T12:04:21;158536.50;;;13.11;67.38
7940;BME280;4015;48.888;9.226;2022-12-29T12:07:20;158523.72;;;13.06;67.98
7940;BME280;4015;48.888;9.226;2022-12-29T12:09:57;158524.97;;;13.06;66.46
7940;BME280;4015;48.888;9.226;2022-12-29T12:12:46;158490.44;;;12.92;67.38
7940;BME280;4015;48.888;9.226;2022-12-29T12:15:27;158459.75;;;12.80;68.81
7940;BME280;4015;48.888;9.226;2022-12-29T12:18:02;158416.25;;;12.63;70.95
7940;BME280;4015;48.888;9.226;2022-12-29T12:20:50;158422.66;;;12.65;69.62
7940;BME280;4015;48.888;9.226;2022-12-29T12:23:32;158417.56;;;12.63;71.49
7940;BME280;4015;48.888;9.226;2022-12-29T12:26:09;158404.78;;;12.58;72.68
7940;BME280;4015;48.888;9.226;2022-12-29T12:28:48;158426.50;;;12.67;73.42
7940;BME280;4015;48.888;9.226;2022-12-29T12:33:57;158434.19;;;12.70;74.50
7940;BME280;4015;48.888;9.226;2022-12-29T12:36:53;158416.25;;;12.63;74.55
7940;BME280;4015;48.888;9.226;2022-12-29T12:39:43;158481.53;;;12.89;74.64
7940;BME280;4015;48.888;9.226;2022-12-29T12:50:59;158489.16;;;12.92;74.22
7940;BME280;4015;48.888;9.226;2022-12-29T12:53:56;158537.78;;;13.11;73.26
7940;BME280;4015;48.888;9.226;2022-12-29T12:56:37;158603.09;;;13.37;72.91
7940;BME280;4015;48.888;9.226;2022-12-29T12:59:33;158652.97;;;13.57;72.77
7940;BME280;4015;48.888;9.226;2022-12-29T13:05:23;158587.72;;;13.31;72.31
7940;BME280;4015;48.888;9.226;2022-12-29T13:07:54;158601.81;;;13.37;72.96
7940;BME280;4015;48.888;9.226;2022-12-29T13:10:39;158658.13;;;13.59;72.22
7940;BME280;4015;48.888;9.226;2022-12-29T13:18:40;158500.69;;;12.96;75.33
7940;BME280;4015;48.888;9.226;2022-12-29T13:26:16;158512.22;;;13.01;75.31
7940;BME280;4015;48.888;9.226;2022-12-29T13:28:58;158519.88;;;13.04;74.25
7940;BME280;4015;48.888;9.226;2022-12-29T13:31:36;158467.44;;;12.83;75.64
7940;BME280;4015;48.888;9.226;2022-12-29T13:34:29;158468.72;;;12.84;75.89
7940;BME280;4015;48.888;9.226;2022-12-29T13:37:02;158498.16;;;12.95;75.40
7940;BME280;4015;48.888;9.226;2022-12-29T13:39:34;158478.94;;;12.88;76.10
7940;BME280;4015;48.888;9.226;2022-12-29T13:42:03;158463.56;;;12.82;75.37
7940;BME280;4015;48.888;9.226;2022-12-29T13:44:36;158484.06;;;12.90;75.65
7940;BME280;4015;48.888;9.226;2022-12-29T13:49:56;158446.94;;;12.75;76.29
7940;BME280;4015;48.888;9.226;2022-12-29T13:55:20;158458.47;;;12.80;75.76
7940;BME280;4015;48.888;9.226;2022-12-29T14:00:28;158425.22;;;12.66;76.23
7940;BME280;4015;48.888;9.226;2022-12-29T14:03:25;158427.78;;;12.67;75.99
7940;BME280;4015;48.888;9.226;2022-12-29T14:06:26;158395.78;;;12.55;75.91
7940;BME280;4015;48.888;9.226;2022-12-29T14:09:01;158411.16;;;12.61;75.55
7940;BME280;4015;48.888;9.226;2022-12-29T14:11:33;158431.59;;;12.69;75.31
7940;BME280;4015;48.888;9.226;2022-12-29T14:14:11;158431.59;;;12.69;76.00
7940;BME280;4015;48.888;9.226;2022-12-29T14:16:37;158417.56;;;12.63;75.61
7940;BME280;4015;48.888;9.226;2022-12-29T14:19:05;158421.41;;;12.65;75.69
7940;BME280;4015;48.888;9.226;2022-12-29T14:21:34;158404.78;;;12.58;76.13
7940;BME280;4015;48.888;9.226;2022-12-29T14:34:56;158376.63;;;12.47;77.09
7940;BME280;4015;48.888;9.226;2022-12-29T14:37:29;158390.69;;;12.53;76.62
7940;BME280;4015;48.888;9.226;2022-12-29T14:42:38;158393.25;;;12.54;76.47
7940;BME280;4015;48.888;9.226;2022-12-29T14:47:37;158403.50;;;12.58;76.37
7940;BME280;4015;48.888;9.226;2022-12-29T14:50:13;158384.28;;;12.50;76.62
7940;BME280;4015;48.888;9.226;2022-12-29T14:55:32;158343.38;;;12.34;77.15
7940;BME280;4015;48.888;9.226;2022-12-29T14:58:04;158317.78;;;12.24;77.96
7940;BME280;4015;48.888;9.226;2022-12-29T15:00:34;158334.41;;;12.30;77.43
7940;BME280;4015;48.888;9.226;2022-12-29T15:05:48;158310.13;;;12.21;77.67
7940;BME280;4015;48.888;9.226;2022-12-29T15:08:22;158335.69;;;12.31;77.92
7940;BME280;4015;48.888;9.226;2022-12-29T15:11:11;158338.22;;;12.32;77.47
7940;BME280;4015;48.888;9.226;2022-12-29T15:13:40;158319.06;;;12.24;77.49
7940;BME280;4015;48.888;9.226;2022-12-29T15:16:22;158278.16;;;12.08;78.26
7940;BME280;4015;48.888;9.226;2022-12-29T15:18:48;158293.50;;;12.14;77.60